Terminal Aerodrome Forecast
Issued by NWS

Home | Current Version | Previous Version | Graphics & Text | Print | Product List | Glossary On
Versions: 1 2 3 4 5 6 7 8 9 10 11 12 13 14 15 16 17 18 19 20 21 22 23
182
FTUS43 KPAH 240520
TAFCGI
TAF
KCGI 240520Z 2406/2506 16010KT P6SM BKN250
     FM240800 19012G22KT P6SM BKN030
     FM241500 21015G25KT P6SM SCT030 BKN100
     FM242300 29012KT P6SM SKC=

USA.gov is the U.S. government's official web portal to all federal, state and local government web resources and services.